sensor_id;sensor_type;location;lat;lon;timestamp;P1;durP1;ratioP1;P2;durP2;ratioP2
10586;SDS011;5341;47.606;7.576;2023-08-17T00:00:07;6.60;;;5.43;;
10586;SDS011;5341;47.606;7.576;2023-08-17T00:02:37;6.47;;;5.78;;
10586;SDS011;5341;47.606;7.576;2023-08-17T00:05:04;6.78;;;5.40;;
10586;SDS011;5341;47.606;7.576;2023-08-17T00:07:33;6.07;;;5.10;;
10586;SDS011;5341;47.606;7.576;2023-08-17T00:10:03;5.72;;;5.15;;
10586;SDS011;5341;47.606;7.576;2023-08-17T00:12:31;7.00;;;5.20;;
10586;SDS011;5341;47.606;7.576;2023-08-17T00:14:59;5.95;;;5.22;;
10586;SDS011;5341;47.606;7.576;2023-08-17T00:17:26;5.93;;;5.10;;
10586;SDS011;5341;47.606;7.576;2023-08-17T00:19:55;5.60;;;5.10;;
10586;SDS011;5341;47.606;7.576;2023-08-17T00:22:22;5.72;;;4.78;;
10586;SDS011;5341;47.606;7.576;2023-08-17T00:24:50;7.13;;;5.40;;
10586;SDS011;5341;47.606;7.576;2023-08-17T00:27:19;6.05;;;4.50;;
10586;SDS011;5341;47.606;7.576;2023-08-17T00:29:47;5.32;;;4.63;;
10586;SDS011;5341;47.606;7.576;2023-08-17T00:32:14;7.15;;;4.80;;
10586;SDS011;5341;47.606;7.576;2023-08-17T00:34:42;4.45;;;4.03;;
10586;SDS011;5341;47.606;7.576;2023-08-17T00:37:09;4.65;;;4.25;;
10586;SDS011;5341;47.606;7.576;2023-08-17T00:39:36;6.05;;;4.70;;
10586;SDS011;5341;47.606;7.576;2023-08-17T00:42:04;5.18;;;4.63;;
10586;SDS011;5341;47.606;7.576;2023-08-17T00:44:36;4.75;;;4.25;;
10586;SDS011;5341;47.606;7.576;2023-08-17T00:47:03;4.43;;;4.03;;
10586;SDS011;5341;47.606;7.576;2023-08-17T00:49:31;5.22;;;4.10;;
10586;SDS011;5341;47.606;7.576;2023-08-17T00:52:00;7.38;;;4.70;;
10586;SDS011;5341;47.606;7.576;2023-08-17T00:54:28;4.38;;;3.97;;
10586;SDS011;5341;47.606;7.576;2023-08-17T00:56:56;4.75;;;4.25;;
10586;SDS011;5341;47.606;7.576;2023-08-17T00:59:24;4.43;;;4.03;;
10586;SDS011;5341;47.606;7.576;2023-08-17T01:01:53;6.30;;;4.38;;
10586;SDS011;5341;47.606;7.576;2023-08-17T01:04:21;5.15;;;3.95;;
10586;SDS011;5341;47.606;7.576;2023-08-17T01:06:49;7.13;;;4.15;;
10586;SDS011;5341;47.606;7.576;2023-08-17T01:09:16;4.18;;;3.78;;
10586;SDS011;5341;47.606;7.576;2023-08-17T01:11:45;4.30;;;3.90;;
10586;SDS011;5341;47.606;7.576;2023-08-17T01:14:19;4.68;;;4.00;;
10586;SDS011;5341;47.606;7.576;2023-08-17T01:16:59;5.32;;;4.20;;
10586;SDS011;5341;47.606;7.576;2023-08-17T01:19:31;4.65;;;3.75;;
10586;SDS011;5341;47.606;7.576;2023-08-17T01:22:00;3.92;;;3.53;;
10586;SDS011;5341;47.606;7.576;2023-08-17T01:24:32;3.88;;;3.45;;
10586;SDS011;5341;47.606;7.576;2023-08-17T01:26:59;4.38;;;3.80;;
10586;SDS011;5341;47.606;7.576;2023-08-17T01:29:27;4.63;;;3.70;;
10586;SDS011;5341;47.606;7.576;2023-08-17T01:31:58;3.78;;;3.35;;
10586;SDS011;5341;47.606;7.576;2023-08-17T01:34:32;5.85;;;3.85;;
10586;SDS011;5341;47.606;7.576;2023-08-17T01:37:03;4.80;;;4.00;;
10586;SDS011;5341;47.606;7.576;2023-08-17T01:39:39;4.93;;;3.70;;
10586;SDS011;5341;47.606;7.576;2023-08-17T01:42:12;4.90;;;3.53;;
10586;SDS011;5341;47.606;7.576;2023-08-17T01:44:39;5.70;;;3.70;;
10586;SDS011;5341;47.606;7.576;2023-08-17T01:47:07;5.18;;;3.63;;
10586;SDS011;5341;47.606;7.576;2023-08-17T01:49:36;3.92;;;3.35;;
10586;SDS011;5341;47.606;7.576;2023-08-17T01:52:04;3.75;;;3.38;;
10586;SDS011;5341;47.606;7.576;2023-08-17T01:54:32;4.10;;;3.67;;
10586;SDS011;5341;47.606;7.576;2023-08-17T01:57:02;4.25;;;3.22;;
10586;SDS011;5341;47.606;7.576;2023-08-17T01:59:29;5.43;;;3.70;;
10586;SDS011;5341;47.606;7.576;2023-08-17T02:01:57;3.97;;;3.50;;
10586;SDS011;5341;47.606;7.576;2023-08-17T02:04:24;5.15;;;3.60;;
10586;SDS011;5341;47.606;7.576;2023-08-17T02:06:52;3.50;;;2.88;;
10586;SDS011;5341;47.606;7.576;2023-08-17T02:09:20;3.38;;;3.03;;
10586;SDS011;5341;47.606;7.576;2023-08-17T02:11:48;3.13;;;2.83;;
10586;SDS011;5341;47.606;7.576;2023-08-17T02:14:17;5.45;;;3.50;;
10586;SDS011;5341;47.606;7.576;2023-08-17T02:16:44;4.53;;;2.80;;
10586;SDS011;5341;47.606;7.576;2023-08-17T02:19:12;4.43;;;2.92;;
10586;SDS011;5341;47.606;7.576;2023-08-17T02:21:41;3.58;;;3.08;;
10586;SDS011;5341;47.606;7.576;2023-08-17T02:24:08;3.17;;;2.85;;
10586;SDS011;5341;47.606;7.576;2023-08-17T02:26:36;3.50;;;2.92;;
10586;SDS011;5341;47.606;7.576;2023-08-17T02:29:05;3.45;;;2.90;;
10586;SDS011;5341;47.606;7.576;2023-08-17T02:31:34;5.53;;;3.08;;
10586;SDS011;5341;47.606;7.576;2023-08-17T02:34:02;5.18;;;2.95;;
10586;SDS011;5341;47.606;7.576;2023-08-17T02:36:30;7.65;;;2.97;;
10586;SDS011;5341;47.606;7.576;2023-08-17T02:38:58;3.58;;;2.50;;
10586;SDS011;5341;47.606;7.576;2023-08-17T02:41:26;3.22;;;2.92;;
10586;SDS011;5341;47.606;7.576;2023-08-17T02:43:53;3.60;;;2.72;;
10586;SDS011;5341;47.606;7.576;2023-08-17T02:46:21;5.05;;;2.90;;
10586;SDS011;5341;47.606;7.576;2023-08-17T02:48:50;3.10;;;2.80;;
10586;SDS011;5341;47.606;7.576;2023-08-17T02:51:18;3.00;;;2.70;;
10586;SDS011;5341;47.606;7.576;2023-08-17T02:53:46;3.75;;;2.70;;
10586;SDS011;5341;47.606;7.576;2023-08-17T02:56:13;2.97;;;2.70;;
10586;SDS011;5341;47.606;7.576;2023-08-17T02:58:41;3.05;;;2.72;;
10586;SDS011;5341;47.606;7.576;2023-08-17T03:01:08;3.53;;;2.78;;
10586;SDS011;5341;47.606;7.576;2023-08-17T03:03:36;2.95;;;2.75;;
10586;SDS011;5341;47.606;7.576;2023-08-17T03:06:06;4.72;;;3.00;;
10586;SDS011;5341;47.606;7.576;2023-08-17T03:08:34;3.65;;;2.80;;
10586;SDS011;5341;47.606;7.576;2023-08-17T03:11:02;3.42;;;2.78;;
10586;SDS011;5341;47.606;7.576;2023-08-17T03:13:31;4.55;;;2.65;;
10586;SDS011;5341;47.606;7.576;2023-08-17T03:15:59;3.97;;;2.60;;
10586;SDS011;5341;47.606;7.576;2023-08-17T03:18:26;3.80;;;2.75;;
10586;SDS011;5341;47.606;7.576;2023-08-17T03:20:54;4.70;;;3.05;;
10586;SDS011;5341;47.606;7.576;2023-08-17T03:23:23;5.10;;;2.70;;
10586;SDS011;5341;47.606;7.576;2023-08-17T03:25:52;3.15;;;2.70;;
10586;SDS011;5341;47.606;7.576;2023-08-17T03:28:19;3.30;;;2.83;;
10586;SDS011;5341;47.606;7.576;2023-08-17T03:30:47;3.33;;;2.88;;
10586;SDS011;5341;47.606;7.576;2023-08-17T03:33:14;3.60;;;2.70;;
10586;SDS011;5341;47.606;7.576;2023-08-17T03:35:42;5.38;;;2.88;;
10586;SDS011;5341;47.606;7.576;2023-08-17T03:38:10;4.00;;;2.38;;
10586;SDS011;5341;47.606;7.576;2023-08-17T03:40:39;3.72;;;2.75;;
10586;SDS011;5341;47.606;7.576;2023-08-17T03:43:06;2.70;;;2.50;;
10586;SDS011;5341;47.606;7.576;2023-08-17T03:45:34;3.30;;;2.55;;
10586;SDS011;5341;47.606;7.576;2023-08-17T03:48:02;3.65;;;2.45;;
10586;SDS011;5341;47.606;7.576;2023-08-17T03:50:32;2.72;;;2.47;;
10586;SDS011;5341;47.606;7.576;2023-08-17T03:52:59;3.40;;;2.45;;
10586;SDS011;5341;47.606;7.576;2023-08-17T03:55:27;3.97;;;2.33;;
10586;SDS011;5341;47.606;7.576;2023-08-17T03:57:56;3.45;;;2.85;;
10586;SDS011;5341;47.606;7.576;2023-08-17T04:00:24;4.20;;;2.85;;
10586;SDS011;5341;47.606;7.576;2023-08-17T04:02:56;4.57;;;2.38;;
10586;SDS011;5341;47.606;7.576;2023-08-17T04:05:24;3.45;;;2.53;;
10586;SDS011;5341;47.606;7.576;2023-08-17T04:07:51;5.97;;;2.80;;
10586;SDS011;5341;47.606;7.576;2023-08-17T04:10:19;3.22;;;2.40;;
10586;SDS011;5341;47.606;7.576;2023-08-17T04:12:46;6.05;;;2.70;;
10586;SDS011;5341;47.606;7.576;2023-08-17T04:15:15;3.95;;;2.40;;
10586;SDS011;5341;47.606;7.576;2023-08-17T04:17:43;3.42;;;2.70;;
10586;SDS011;5341;47.606;7.576;2023-08-17T04:20:11;10.23;;;3.03;;
10586;SDS011;5341;47.606;7.576;2023-08-17T04:22:38;3.38;;;2.70;;
10586;SDS011;5341;47.606;7.576;2023-08-17T04:25:06;3.70;;;2.60;;
10586;SDS011;5341;47.606;7.576;2023-08-17T04:27:34;4.55;;;2.67;;
10586;SDS011;5341;47.606;7.576;2023-08-17T04:30:02;2.67;;;2.20;;
10586;SDS011;5341;47.606;7.576;2023-08-17T04:32:39;3.10;;;2.60;;
10586;SDS011;5341;47.606;7.576;2023-08-17T04:35:07;3.63;;;2.90;;
10586;SDS011;5341;47.606;7.576;2023-08-17T04:37:35;4.05;;;2.75;;
10586;SDS011;5341;47.606;7.576;2023-08-17T04:40:03;3.33;;;2.47;;
10586;SDS011;5341;47.606;7.576;2023-08-17T04:42:32;3.28;;;2.70;;
10586;SDS011;5341;47.606;7.576;2023-08-17T04:45:01;3.78;;;2.80;;
10586;SDS011;5341;47.606;7.576;2023-08-17T04:47:30;3.00;;;2.70;;
10586;SDS011;5341;47.606;7.576;2023-08-17T04:49:59;2.90;;;2.53;;
10586;SDS011;5341;47.606;7.576;2023-08-17T04:52:27;4.50;;;2.55;;
10586;SDS011;5341;47.606;7.576;2023-08-17T04:54:54;3.33;;;2.75;;
10586;SDS011;5341;47.606;7.576;2023-08-17T04:57:22;3.20;;;2.58;;
10586;SDS011;5341;47.606;7.576;2023-08-17T04:59:50;3.15;;;2.67;;
10586;SDS011;5341;47.606;7.576;2023-08-17T05:02:18;8.38;;;3.10;;
10586;SDS011;5341;47.606;7.576;2023-08-17T05:04:46;9.85;;;3.17;;
10586;SDS011;5341;47.606;7.576;2023-08-17T05:07:15;2.60;;;2.40;;
10586;SDS011;5341;47.606;7.576;2023-08-17T05:09:43;3.22;;;2.75;;
10586;SDS011;5341;47.606;7.576;2023-08-17T05:12:10;2.80;;;2.60;;
10586;SDS011;5341;47.606;7.576;2023-08-17T05:14:38;3.67;;;2.78;;
10586;SDS011;5341;47.606;7.576;2023-08-17T05:17:06;3.03;;;2.70;;
10586;SDS011;5341;47.606;7.576;2023-08-17T05:19:33;3.33;;;2.65;;
10586;SDS011;5341;47.606;7.576;2023-08-17T05:22:03;4.28;;;2.90;;
10586;SDS011;5341;47.606;7.576;2023-08-17T05:24:33;3.42;;;2.63;;
10586;SDS011;5341;47.606;7.576;2023-08-17T05:27:00;5.60;;;3.00;;
10586;SDS011;5341;47.606;7.576;2023-08-17T05:29:28;3.55;;;2.70;;
10586;SDS011;5341;47.606;7.576;2023-08-17T05:31:57;3.50;;;3.20;;
10586;SDS011;5341;47.606;7.576;2023-08-17T05:34:25;6.10;;;2.95;;
10586;SDS011;5341;47.606;7.576;2023-08-17T05:36:54;5.43;;;3.42;;
10586;SDS011;5341;47.606;7.576;2023-08-17T05:39:23;5.25;;;3.47;;
10586;SDS011;5341;47.606;7.576;2023-08-17T05:41:52;5.13;;;3.33;;
10586;SDS011;5341;47.606;7.576;2023-08-17T05:44:19;5.25;;;3.97;;
10586;SDS011;5341;47.606;7.576;2023-08-17T05:46:48;5.20;;;3.92;;
10586;SDS011;5341;47.606;7.576;2023-08-17T05:49:15;6.40;;;3.92;;
10586;SDS011;5341;47.606;7.576;2023-08-17T05:51:43;5.60;;;4.38;;
10586;SDS011;5341;47.606;7.576;2023-08-17T05:54:10;8.77;;;4.43;;
10586;SDS011;5341;47.606;7.576;2023-08-17T05:56:37;7.28;;;4.30;;
10586;SDS011;5341;47.606;7.576;2023-08-17T05:59:11;5.85;;;4.35;;
10586;SDS011;5341;47.606;7.576;2023-08-17T06:01:39;7.15;;;4.90;;
10586;SDS011;5341;47.606;7.576;2023-08-17T06:04:07;7.68;;;5.28;;
10586;SDS011;5341;47.606;7.576;2023-08-17T06:06:34;6.57;;;4.38;;
10586;SDS011;5341;47.606;7.576;2023-08-17T06:09:02;9.40;;;5.05;;
10586;SDS011;5341;47.606;7.576;2023-08-17T06:11:30;8.77;;;5.82;;
10586;SDS011;5341;47.606;7.576;2023-08-17T06:13:57;8.48;;;4.72;;
10586;SDS011;5341;47.606;7.576;2023-08-17T06:16:28;7.38;;;5.32;;
10586;SDS011;5341;47.606;7.576;2023-08-17T06:18:57;8.82;;;5.70;;
10586;SDS011;5341;47.606;7.576;2023-08-17T06:21:24;8.52;;;5.85;;
10586;SDS011;5341;47.606;7.576;2023-08-17T06:23:52;6.60;;;5.80;;
10586;SDS011;5341;47.606;7.576;2023-08-17T06:26:19;10.68;;;5.82;;
10586;SDS011;5341;47.606;7.576;2023-08-17T06:28:47;7.20;;;5.70;;
10586;SDS011;5341;47.606;7.576;2023-08-17T06:31:14;7.78;;;5.47;;
10586;SDS011;5341;47.606;7.576;2023-08-17T06:33:43;8.40;;;5.65;;
10586;SDS011;5341;47.606;7.576;2023-08-17T06:36:11;7.38;;;5.85;;
10586;SDS011;5341;47.606;7.576;2023-08-17T06:38:42;9.13;;;5.78;;
10586;SDS011;5341;47.606;7.576;2023-08-17T06:41:09;7.75;;;5.32;;
10586;SDS011;5341;47.606;7.576;2023-08-17T06:43:37;8.35;;;5.40;;
10586;SDS011;5341;47.606;7.576;2023-08-17T06:46:04;8.85;;;5.55;;
10586;SDS011;5341;47.606;7.576;2023-08-17T06:48:32;7.18;;;5.80;;
10586;SDS011;5341;47.606;7.576;2023-08-17T06:51:01;7.53;;;5.70;;
10586;SDS011;5341;47.606;7.576;2023-08-17T06:53:30;8.50;;;5.80;;
10586;SDS011;5341;47.606;7.576;2023-08-17T06:55:58;9.20;;;6.53;;
10586;SDS011;5341;47.606;7.576;2023-08-17T06:58:25;10.55;;;6.28;;
10586;SDS011;5341;47.606;7.576;2023-08-17T07:00:53;9.90;;;5.97;;
10586;SDS011;5341;47.606;7.576;2023-08-17T07:03:20;8.13;;;5.60;;
10586;SDS011;5341;47.606;7.576;2023-08-17T07:05:48;8.48;;;6.15;;
10586;SDS011;5341;47.606;7.576;2023-08-17T07:08:17;11.52;;;6.97;;
10586;SDS011;5341;47.606;7.576;2023-08-17T07:10:44;9.48;;;6.13;;
10586;SDS011;5341;47.606;7.576;2023-08-17T07:13:11;8.00;;;6.18;;
10586;SDS011;5341;47.606;7.576;2023-08-17T07:15:39;10.15;;;6.45;;
10586;SDS011;5341;47.606;7.576;2023-08-17T07:18:06;8.77;;;6.45;;
10586;SDS011;5341;47.606;7.576;2023-08-17T07:20:34;10.77;;;6.90;;
10586;SDS011;5341;47.606;7.576;2023-08-17T07:23:01;9.68;;;6.72;;
10586;SDS011;5341;47.606;7.576;2023-08-17T07:25:31;10.30;;;7.10;;
10586;SDS011;5341;47.606;7.576;2023-08-17T07:27:58;9.20;;;6.43;;
10586;SDS011;5341;47.606;7.576;2023-08-17T07:30:26;10.18;;;6.65;;
10586;SDS011;5341;47.606;7.576;2023-08-17T07:32:53;8.73;;;6.35;;
10586;SDS011;5341;47.606;7.576;2023-08-17T07:35:21;7.47;;;6.15;;
10586;SDS011;5341;47.606;7.576;2023-08-17T07:37:48;9.77;;;7.22;;
10586;SDS011;5341;47.606;7.576;2023-08-17T07:40:16;10.07;;;6.90;;
10586;SDS011;5341;47.606;7.576;2023-08-17T07:42:45;18.83;;;6.95;;
10586;SDS011;5341;47.606;7.576;2023-08-17T07:45:13;11.30;;;6.82;;
10586;SDS011;5341;47.606;7.576;2023-08-17T07:47:40;9.98;;;6.47;;
10586;SDS011;5341;47.606;7.576;2023-08-17T07:50:08;9.77;;;6.43;;
10586;SDS011;5341;47.606;7.576;2023-08-17T07:52:36;8.82;;;6.57;;
10586;SDS011;5341;47.606;7.576;2023-08-17T07:55:03;9.13;;;6.10;;
10586;SDS011;5341;47.606;7.576;2023-08-17T07:57:31;7.95;;;6.10;;
10586;SDS011;5341;47.606;7.576;2023-08-17T08:00:00;8.15;;;6.22;;
10586;SDS011;5341;47.606;7.576;2023-08-17T08:02:33;9.05;;;5.95;;
10586;SDS011;5341;47.606;7.576;2023-08-17T08:05:01;7.78;;;5.43;;
10586;SDS011;5341;47.606;7.576;2023-08-17T08:07:28;8.45;;;5.97;;
10586;SDS011;5341;47.606;7.576;2023-08-17T08:09:56;8.00;;;5.72;;
10586;SDS011;5341;47.606;7.576;2023-08-17T08:12:23;8.52;;;6.32;;
10586;SDS011;5341;47.606;7.576;2023-08-17T08:14:51;8.48;;;5.78;;
10586;SDS011;5341;47.606;7.576;2023-08-17T08:17:20;7.70;;;5.70;;
10586;SDS011;5341;47.606;7.576;2023-08-17T08:19:47;10.40;;;5.85;;
10586;SDS011;5341;47.606;7.576;2023-08-17T08:22:16;8.07;;;6.05;;
10586;SDS011;5341;47.606;7.576;2023-08-17T08:24:43;6.72;;;5.93;;
10586;SDS011;5341;47.606;7.576;2023-08-17T08:27:11;9.38;;;6.00;;
10586;SDS011;5341;47.606;7.576;2023-08-17T08:29:39;7.45;;;5.65;;
10586;SDS011;5341;47.606;7.576;2023-08-17T08:32:06;6.65;;;5.60;;
10586;SDS011;5341;47.606;7.576;2023-08-17T08:34:35;6.78;;;5.72;;
10586;SDS011;5341;47.606;7.576;2023-08-17T08:37:03;7.55;;;5.97;;
10586;SDS011;5341;47.606;7.576;2023-08-17T08:39:30;6.43;;;5.55;;
10586;SDS011;5341;47.606;7.576;2023-08-17T08:41:58;7.85;;;5.35;;
10586;SDS011;5341;47.606;7.576;2023-08-17T08:44:25;6.57;;;5.88;;
10586;SDS011;5341;47.606;7.576;2023-08-17T08:46:53;7.07;;;5.60;;
10586;SDS011;5341;47.606;7.576;2023-08-17T08:49:23;6.47;;;5.75;;
10586;SDS011;5341;47.606;7.576;2023-08-17T08:51:54;34.38;;;7.85;;
10586;SDS011;5341;47.606;7.576;2023-08-17T08:54:26;8.10;;;5.45;;
10586;SDS011;5341;47.606;7.576;2023-08-17T08:56:57;6.68;;;5.50;;
10586;SDS011;5341;47.606;7.576;2023-08-17T08:59:28;6.78;;;5.15;;
10586;SDS011;5341;47.606;7.576;2023-08-17T09:01:56;6.35;;;5.43;;
10586;SDS011;5341;47.606;7.576;2023-08-17T09:04:24;8.02;;;5.55;;
10586;SDS011;5341;47.606;7.576;2023-08-17T09:06:51;6.40;;;4.97;;
10586;SDS011;5341;47.606;7.576;2023-08-17T09:09:21;7.25;;;5.80;;
10586;SDS011;5341;47.606;7.576;2023-08-17T09:11:50;7.15;;;5.30;;
10586;SDS011;5341;47.606;7.576;2023-08-17T09:14:17;8.27;;;5.53;;
10586;SDS011;5341;47.606;7.576;2023-08-17T09:16:45;9.07;;;6.28;;
10586;SDS011;5341;47.606;7.576;2023-08-17T09:19:12;5.38;;;4.82;;
10586;SDS011;5341;47.606;7.576;2023-08-17T09:21:40;6.93;;;4.90;;
10586;SDS011;5341;47.606;7.576;2023-08-17T09:24:08;5.55;;;4.55;;
10586;SDS011;5341;47.606;7.576;2023-08-17T09:26:37;5.75;;;4.97;;
10586;SDS011;5341;47.606;7.576;2023-08-17T09:29:16;5.85;;;4.93;;
10586;SDS011;5341;47.606;7.576;2023-08-17T09:31:45;6.40;;;4.22;;
10586;SDS011;5341;47.606;7.576;2023-08-17T09:34:14;5.53;;;4.93;;
10586;SDS011;5341;47.606;7.576;2023-08-17T09:36:41;6.30;;;4.82;;
10586;SDS011;5341;47.606;7.576;2023-08-17T09:39:09;6.18;;;5.10;;
10586;SDS011;5341;47.606;7.576;2023-08-17T09:41:42;8.30;;;5.90;;
10586;SDS011;5341;47.606;7.576;2023-08-17T09:44:09;8.10;;;5.43;;
10586;SDS011;5341;47.606;7.576;2023-08-17T09:46:38;7.10;;;5.25;;
10586;SDS011;5341;47.606;7.576;2023-08-17T09:49:09;7.53;;;5.78;;
10586;SDS011;5341;47.606;7.576;2023-08-17T09:51:36;7.28;;;5.57;;
10586;SDS011;5341;47.606;7.576;2023-08-17T09:54:04;7.78;;;5.93;;
10586;SDS011;5341;47.606;7.576;2023-08-17T09:56:31;11.40;;;6.30;;
10586;SDS011;5341;47.606;7.576;2023-08-17T09:59:01;21.85;;;6.95;;
10586;SDS011;5341;47.606;7.576;2023-08-17T10:01:29;7.15;;;5.20;;
10586;SDS011;5341;47.606;7.576;2023-08-17T10:03:56;9.75;;;5.03;;
10586;SDS011;5341;47.606;7.576;2023-08-17T10:06:26;9.13;;;5.28;;
10586;SDS011;5341;47.606;7.576;2023-08-17T10:08:57;10.20;;;5.25;;
10586;SDS011;5341;47.606;7.576;2023-08-17T10:11:26;8.20;;;5.32;;
10586;SDS011;5341;47.606;7.576;2023-08-17T10:13:59;5.55;;;4.80;;
10586;SDS011;5341;47.606;7.576;2023-08-17T10:16:33;8.48;;;5.00;;
10586;SDS011;5341;47.606;7.576;2023-08-17T10:19:06;8.50;;;4.82;;
10586;SDS011;5341;47.606;7.576;2023-08-17T10:21:43;8.15;;;4.30;;
10586;SDS011;5341;47.606;7.576;2023-08-17T10:24:14;20.40;;;5.40;;
10586;SDS011;5341;47.606;7.576;2023-08-17T10:26:43;7.28;;;4.78;;
10586;SDS011;5341;47.606;7.576;2023-08-17T10:29:14;4.75;;;4.35;;
10586;SDS011;5341;47.606;7.576;2023-08-17T10:31:43;6.25;;;4.60;;
10586;SDS011;5341;47.606;7.576;2023-08-17T10:34:11;6.60;;;4.22;;
10586;SDS011;5341;47.606;7.576;2023-08-17T10:36:39;8.57;;;4.15;;
10586;SDS011;5341;47.606;7.576;2023-08-17T10:39:20;6.20;;;3.80;;
10586;SDS011;5341;47.606;7.576;2023-08-17T10:41:49;4.53;;;3.65;;
10586;SDS011;5341;47.606;7.576;2023-08-17T10:44:37;5.38;;;4.30;;
10586;SDS011;5341;47.606;7.576;2023-08-17T10:47:18;6.47;;;3.90;;
10586;SDS011;5341;47.606;7.576;2023-08-17T10:49:50;7.88;;;4.45;;
10586;SDS011;5341;47.606;7.576;2023-08-17T10:52:28;4.80;;;4.40;;
10586;SDS011;5341;47.606;7.576;2023-08-17T10:54:58;5.53;;;4.30;;
10586;SDS011;5341;47.606;7.576;2023-08-17T10:57:27;5.60;;;3.65;;
10586;SDS011;5341;47.606;7.576;2023-08-17T11:02:52;4.97;;;3.85;;
10586;SDS011;5341;47.606;7.576;2023-08-17T11:05:39;6.68;;;3.70;;
10586;SDS011;5341;47.606;7.576;2023-08-17T11:08:09;9.55;;;4.22;;
10586;SDS011;5341;47.606;7.576;2023-08-17T11:10:41;9.68;;;3.90;;
10586;SDS011;5341;47.606;7.576;2023-08-17T11:13:14;5.63;;;3.70;;
10586;SDS011;5341;47.606;7.576;2023-08-17T11:15:43;9.50;;;4.05;;
10586;SDS011;5341;47.606;7.576;2023-08-17T11:18:13;4.88;;;3.60;;
10586;SDS011;5341;47.606;7.576;2023-08-17T11:20:41;7.55;;;4.30;;
10586;SDS011;5341;47.606;7.576;2023-08-17T11:23:09;6.18;;;4.18;;
10586;SDS011;5341;47.606;7.576;2023-08-17T11:25:37;5.00;;;3.90;;
10586;SDS011;5341;47.606;7.576;2023-08-17T11:28:06;6.80;;;3.80;;
10586;SDS011;5341;47.606;7.576;2023-08-17T11:30:34;5.13;;;3.58;;
10586;SDS011;5341;47.606;7.576;2023-08-17T11:33:06;8.00;;;3.80;;
10586;SDS011;5341;47.606;7.576;2023-08-17T11:35:34;7.50;;;3.65;;
10586;SDS011;5341;47.606;7.576;2023-08-17T11:38:01;4.95;;;3.90;;
10586;SDS011;5341;47.606;7.576;2023-08-17T11:40:31;5.97;;;3.85;;
10586;SDS011;5341;47.606;7.576;2023-08-17T11:42:59;5.13;;;3.65;;
10586;SDS011;5341;47.606;7.576;2023-08-17T11:45:27;7.00;;;3.65;;
10586;SDS011;5341;47.606;7.576;2023-08-17T11:47:55;7.03;;;3.88;;
10586;SDS011;5341;47.606;7.576;2023-08-17T11:50:24;5.35;;;3.45;;
10586;SDS011;5341;47.606;7.576;2023-08-17T11:52:53;6.50;;;3.70;;
10586;SDS011;5341;47.606;7.576;2023-08-17T11:55:20;7.68;;;4.00;;
10586;SDS011;5341;47.606;7.576;2023-08-17T11:57:48;9.85;;;3.35;;
10586;SDS011;5341;47.606;7.576;2023-08-17T12:00:19;8.10;;;3.53;;
10586;SDS011;5341;47.606;7.576;2023-08-17T12:02:47;8.98;;;3.45;;
10586;SDS011;5341;47.606;7.576;2023-08-17T12:05:18;6.47;;;3.30;;
10586;SDS011;5341;47.606;7.576;2023-08-17T12:07:50;10.10;;;3.90;;
10586;SDS011;5341;47.606;7.576;2023-08-17T12:10:19;12.50;;;4.03;;
10586;SDS011;5341;47.606;7.576;2023-08-17T12:12:47;5.95;;;3.40;;
10586;SDS011;5341;47.606;7.576;2023-08-17T12:15:15;7.03;;;3.50;;
10586;SDS011;5341;47.606;7.576;2023-08-17T12:17:46;7.63;;;3.85;;
10586;SDS011;5341;47.606;7.576;2023-08-17T12:20:17;7.25;;;3.67;;
10586;SDS011;5341;47.606;7.576;2023-08-17T12:22:46;7.03;;;3.60;;
10586;SDS011;5341;47.606;7.576;2023-08-17T12:25:16;9.30;;;3.70;;
10586;SDS011;5341;47.606;7.576;2023-08-17T12:27:47;6.38;;;3.50;;
10586;SDS011;5341;47.606;7.576;2023-08-17T12:30:24;8.13;;;3.50;;
10586;SDS011;5341;47.606;7.576;2023-08-17T12:32:52;11.88;;;4.03;;
10586;SDS011;5341;47.606;7.576;2023-08-17T12:35:20;8.13;;;3.20;;
10586;SDS011;5341;47.606;7.576;2023-08-17T12:37:49;9.77;;;3.58;;
10586;SDS011;5341;47.606;7.576;2023-08-17T12:40:19;7.20;;;3.47;;
10586;SDS011;5341;47.606;7.576;2023-08-17T12:42:47;8.90;;;3.88;;
10586;SDS011;5341;47.606;7.576;2023-08-17T12:45:15;6.78;;;3.50;;
10586;SDS011;5341;47.606;7.576;2023-08-17T12:47:42;7.80;;;3.63;;
10586;SDS011;5341;47.606;7.576;2023-08-17T12:50:10;7.63;;;3.88;;
10586;SDS011;5341;47.606;7.576;2023-08-17T12:52:37;9.50;;;3.38;;
10586;SDS011;5341;47.606;7.576;2023-08-17T12:55:05;8.10;;;3.53;;
10586;SDS011;5341;47.606;7.576;2023-08-17T12:57:34;9.50;;;3.83;;
10586;SDS011;5341;47.606;7.576;2023-08-17T13:00:02;11.00;;;3.83;;
10586;SDS011;5341;47.606;7.576;2023-08-17T13:02:30;10.75;;;3.92;;
10586;SDS011;5341;47.606;7.576;2023-08-17T13:04:58;9.70;;;3.85;;
10586;SDS011;5341;47.606;7.576;2023-08-17T13:07:25;10.13;;;4.00;;
10586;SDS011;5341;47.606;7.576;2023-08-17T13:09:53;10.80;;;3.58;;
10586;SDS011;5341;47.606;7.576;2023-08-17T13:12:20;9.75;;;3.40;;
10586;SDS011;5341;47.606;7.576;2023-08-17T13:14:49;8.68;;;3.38;;
10586;SDS011;5341;47.606;7.576;2023-08-17T13:17:17;4.75;;;3.58;;
10586;SDS011;5341;47.606;7.576;2023-08-17T13:19:45;4.47;;;3.28;;
10586;SDS011;5341;47.606;7.576;2023-08-17T13:22:12;7.57;;;3.75;;
10586;SDS011;5341;47.606;7.576;2023-08-17T13:24:39;6.63;;;3.28;;
10586;SDS011;5341;47.606;7.576;2023-08-17T13:27:07;9.10;;;3.72;;
10586;SDS011;5341;47.606;7.576;2023-08-17T13:29:34;5.95;;;3.92;;
10586;SDS011;5341;47.606;7.576;2023-08-17T13:32:06;8.15;;;3.42;;
10586;SDS011;5341;47.606;7.576;2023-08-17T13:34:33;7.32;;;3.75;;
10586;SDS011;5341;47.606;7.576;2023-08-17T13:37:01;5.57;;;3.28;;
10586;SDS011;5341;47.606;7.576;2023-08-17T13:39:29;6.57;;;3.85;;
10586;SDS011;5341;47.606;7.576;2023-08-17T13:41:56;9.35;;;3.50;;
10586;SDS011;5341;47.606;7.576;2023-08-17T13:44:24;8.05;;;3.75;;
10586;SDS011;5341;47.606;7.576;2023-08-17T13:46:51;5.60;;;3.15;;
10586;SDS011;5341;47.606;7.576;2023-08-17T13:49:20;4.10;;;3.10;;
10586;SDS011;5341;47.606;7.576;2023-08-17T13:51:48;5.93;;;3.40;;
10586;SDS011;5341;47.606;7.576;2023-08-17T13:54:15;9.57;;;3.42;;
10586;SDS011;5341;47.606;7.576;2023-08-17T13:56:43;7.53;;;3.53;;
10586;SDS011;5341;47.606;7.576;2023-08-17T13:59:10;11.88;;;3.42;;
10586;SDS011;5341;47.606;7.576;2023-08-17T14:01:37;9.00;;;3.83;;
10586;SDS011;5341;47.606;7.576;2023-08-17T14:04:05;6.18;;;3.50;;
10586;SDS011;5341;47.606;7.576;2023-08-17T14:06:38;5.50;;;3.45;;
10586;SDS011;5341;47.606;7.576;2023-08-17T14:09:06;7.35;;;3.40;;
10586;SDS011;5341;47.606;7.576;2023-08-17T14:11:34;5.20;;;3.33;;
10586;SDS011;5341;47.606;7.576;2023-08-17T14:14:02;6.38;;;3.47;;
10586;SDS011;5341;47.606;7.576;2023-08-17T14:16:30;8.50;;;3.20;;
10586;SDS011;5341;47.606;7.576;2023-08-17T14:18:57;6.80;;;3.40;;
10586;SDS011;5341;47.606;7.576;2023-08-17T14:21:25;6.07;;;3.10;;
10586;SDS011;5341;47.606;7.576;2023-08-17T14:23:54;6.70;;;3.30;;
10586;SDS011;5341;47.606;7.576;2023-08-17T14:26:21;7.70;;;3.75;;
10586;SDS011;5341;47.606;7.576;2023-08-17T14:28:51;9.57;;;3.60;;
10586;SDS011;5341;47.606;7.576;2023-08-17T14:31:18;8.60;;;3.47;;
10586;SDS011;5341;47.606;7.576;2023-08-17T14:33:46;6.20;;;3.00;;
10586;SDS011;5341;47.606;7.576;2023-08-17T14:36:14;7.50;;;3.20;;
10586;SDS011;5341;47.606;7.576;2023-08-17T14:38:42;6.93;;;3.22;;
10586;SDS011;5341;47.606;7.576;2023-08-17T14:41:11;5.80;;;3.13;;
10586;SDS011;5341;47.606;7.576;2023-08-17T14:43:39;5.43;;;3.20;;
10586;SDS011;5341;47.606;7.576;2023-08-17T14:46:06;5.65;;;3.30;;
10586;SDS011;5341;47.606;7.576;2023-08-17T14:48:34;24.13;;;4.18;;
10586;SDS011;5341;47.606;7.576;2023-08-17T14:51:01;17.65;;;3.90;;
10586;SDS011;5341;47.606;7.576;2023-08-17T14:53:29;13.02;;;3.60;;
10586;SDS011;5341;47.606;7.576;2023-08-17T14:55:57;20.77;;;4.30;;
10586;SDS011;5341;47.606;7.576;2023-08-17T14:58:26;28.92;;;5.25;;
10586;SDS011;5341;47.606;7.576;2023-08-17T15:00:53;15.82;;;3.92;;
10586;SDS011;5341;47.606;7.576;2023-08-17T15:03:21;7.85;;;3.75;;
10586;SDS011;5341;47.606;7.576;2023-08-17T15:05:48;10.93;;;4.15;;
10586;SDS011;5341;47.606;7.576;2023-08-17T15:08:16;11.43;;;4.25;;
10586;SDS011;5341;47.606;7.576;2023-08-17T15:10:45;8.93;;;3.45;;